André Pacheco

Olheiro - Santa Cruz
4 Dez 2028
Segunda-feira
Processo

Personalidade

Adaptabilidade (15) Ambição (1) Controvérsia (20) Lealdade (3) Pressão (9) Profissionalismo (18) Espírito Esportivo (14) Temperamento (4)

Perfil

Estilo de Treinamento Democrático
Licença Continental B
Determinação 11
Gestão de Pessoas 7
Motivação 7
Disciplina 10
Satisfação no Trabalho
100%
Fadiga
0%
Função Olheiro
Salário 21.5K p/s
Contrato 14.03.2029

Desempenho

Comportamento Bom
Eficácia do Treinamento
41%
Desenvolvimento do Jogador
25%
Prevenção de Lesões
25%
Implementação Tática
55%

Eventos Recentes

Avaliou um jogador agora
Participou de uma reunião de recrutamento agora
Recomendou um alvo de transferência agora
Recomendou um alvo de transferência agora
Recomendou um alvo de transferência agora
Avaliou um jogador agora
Avaliou um jogador agora
Apresentou um dossiê à direção agora

Monitorando agora

152
Jogador Clube Status Habilidade Confiança Observado Última observação Último voto
Geovane Atletico Goianiense Relatório pronto 100 / 96 86% 1 01.12.2028 -
Nicolás Retamar Ferro Carril Oeste Ativo 117 / 118 40% 4 30.11.2028 -
Alex Oyowah Rivers United Ativo 99 / 87 40% 2 30.11.2028 -
Enzo González Defensores Ativo 112 / 99 40% 3 30.11.2028 -
Camilo Machado Madryn Ativo 111 / 111 40% 2 29.11.2028 -
Walter Núñez Montevideo City Torque Ativo 120 / 114 40% 1 29.11.2028 -
Agustín Rodríguez Juventud Ativo 128 / 129 40% 3 27.11.2028 -
Marco Miori Alvarado Ativo 110 / 112 40% 3 27.11.2028 -
Agustín Colazo Unión de Santa Fe Ativo 121 / 118 40% 1 27.11.2028 -
Juan David Rueda Alianza Petrolera Ativo 110 / 117 40% 3 26.11.2028 -
Matías Sosa Arsenal Ativo 111 / 112 40% 2 26.11.2028 -
Mateo Bajamich Atlético Tucumán Ativo 122 / 115 40% 1 26.11.2028 -
Luciano Cosentino Wanderers Ativo 125 / 129 40% 3 24.11.2028 -
Samuel Anakwe Remo Stars Ativo 106 / 85 40% 4 24.11.2028 -
Junior Paredes Trujillanos Ativo 110 / 112 40% 1 24.11.2028 -
Alexander Díaz Deportivo Riestra Ativo 126 / 128 40% 3 23.11.2028 -
Sergio Núñez Liverpool Montevideo Ativo 112 / 102 40% 2 23.11.2028 -
Facundo Krüger Temperley Ativo 116 / 118 40% 1 23.11.2028 -
Gianluca Pugliese Güemes Ativo 111 / 104 40% 3 22.11.2028 -
Mauricio Márquez Caracas Ativo 109 / 101 40% 2 22.11.2028 -
Agustín Gallo Tristán Suárez Ativo 110 / 107 40% 3 22.11.2028 -
Emiliano Gómez Boston River Ativo 122 / 126 40% 2 21.11.2028 -
Sebastián Cocimano Nueva Chicago Ativo 111 / 117 40% 1 21.11.2028 -
Sebastián Marfort Racing Ativo 105 / 101 40% 1 21.11.2028 -
Nicolás Medina Atlanta Ativo 108 / 106 40% 1 19.11.2028 -
Santiago Sala Güemes Ativo 113 / 106 40% 6 17.11.2028 -
Jerónimo Porto Lapegüe San Telmo Ativo 112 / 105 40% 1 17.11.2028 -
Lucas Pedraza Defensores Unidos Ativo 102 / 99 40% 1 17.11.2028 -
Ramiro Ruiz Rodríguez Atlético Tucumán Ativo 124 / 129 40% 2 16.11.2028 -
Juan Peinipil Madryn Ativo 107 / 105 40% 1 16.11.2028 -
José Barreto Quilmes Ativo 113 / 112 40% 2 15.11.2028 -
Francisco Bonfiglio Boston River Ativo 117 / 117 40% 1 10.11.2028 -
Favio Cabral Mitre Ativo 122 / 123 40% 3 07.11.2028 -
Luca Franco Arsenal Ativo 113 / 118 40% 1 07.11.2028 -
José Balza Deportivo Tachira Ativo 112 / 105 40% 1 06.11.2028 -
Fabri Vitória Ativo 125 / 126 40% 1 02.11.2028 -
Rafael Moreno Atletico Venezuela Ativo 111 / 119 40% 1 02.11.2028 -
Timothy Zechariah Rivers United Ativo 98 / 98 40% 2 30.10.2028 -
Maclyn Biokpo Jenewari Rivers United Ativo 111 / 101 40% 1 25.10.2028 -
Daniel Barrea Godoy Cruz Ativo 127 / 122 40% 1 25.10.2028 -
Rodrigo Auzmendi Banfield Ativo 126 / 120 40% 1 23.10.2028 -
Nicolás Ferreira Wanderers Ativo 125 / 117 40% 2 22.10.2028 -
Mauro Valiente Estudiantes Ativo 119 / 117 40% 2 19.10.2028 -
Jonathan Farías Torpedo Kutaisi Ativo 104 / 98 40% 2 18.10.2028 -
Agustín Morales Estudiantes Ativo 117 / 120 40% 1 12.10.2028 -
Esteban Obregón Montevideo City Torque Ativo 121 / 116 40% 3 11.10.2028 -
Carlos De Las Salas Aguilas Doradas Ativo 115 / 121 40% 1 11.10.2028 -
Iñaki Larthirigoyen San Telmo Ativo 124 / 126 40% 4 10.10.2028 -
Patricio Moyano Defensores Ativo 122 / 124 40% 4 10.10.2028 -
Álvaro Meléndez Real Cartagena Ativo 109 / 101 40% 2 10.10.2028 -
Brayan Palmezano Deportivo Tachira Ativo 110 / 106 40% 1 09.10.2028 -
Franco Vedoya Central Norte Ativo 117 / 108 40% 3 04.10.2028 -
Imran Oulad Omar Dinamo Batumi Ativo 129 / 125 40% 5 04.10.2028 -
Giorgi Arabidze Torpedo Kutaisi Ativo 120 / 106 40% 2 04.10.2028 -
John Córdoba Millonarios Ativo 123 / 110 40% 2 03.10.2028 -
Enzo Hoyos Ferro Carril Oeste Ativo 118 / 117 40% 1 03.10.2028 -
Carlos Cantillo Jaguares Ativo 117 / 113 40% 1 04.09.2028 -
Kauan Toledo Botafogo Negociando 85 / 86 83% 1 10.07.2028 Aprovar
Admir Bristrić Cambridge United Ativo 109 / 106 40% 1 31.05.2028 -
Luke Molyneux Doncaster Rovers Ativo 126 / 121 40% 1 31.05.2028 -
André Shinyashiki Plymouth Argyle Ativo 114 / 102 40% 3 29.05.2028 -
Ben Wiles Milton Keynes Dons Ativo 113 / 124 40% 1 29.05.2028 -
Caylan Vickers Burton Albion Ativo 113 / 116 40% 1 27.05.2028 -
Marcus Browne AFC Wimbledon Ativo 109 / 102 40% 1 27.05.2028 -
Charlie Whitaker Tranmere Rovers Ativo 113 / 93 40% 1 27.05.2028 -
Camillo Tavernelli Arezzo Ativo 128 / 131 40% 3 24.05.2028 -
Josh Nichols Oldham Athletic Ativo 116 / 124 40% 1 24.05.2028 -
Darragh Burns Grimsby Town Ativo 109 / 103 40% 1 24.05.2028 -
Kyreece Lisbie Colchester United Ativo 111 / 127 40% 2 22.05.2028 -
Mathys Jean Marie Vis Pesaro Ativo 95 / 105 40% 1 22.05.2028 -
Lucas Fernandes Bolton Wanderers Ativo 125 / 125 40% 4 20.05.2028 -
Rúben Rodrigues Bolton Wanderers Ativo 121 / 122 40% 1 20.05.2028 -
Ethan Erhahon Cheltenham Town Ativo 120 / 127 40% 1 20.05.2028 -
Joe Powell Gillingham Ativo 112 / 123 40% 2 19.05.2028 -
Bernard Sulemana Ashanti Gold Ativo 114 / 109 40% 1 14.05.2028 -
Iván Pomba Sheffield Wednesday Ativo 118 / 118 40% 1 14.05.2028 -
Stephen Humphrys Bradford City Ativo 111 / 103 40% 2 04.05.2028 -
Benicio Baker-Boaitey Mansfield Town Ativo 110 / 118 40% 1 02.05.2028 -
Mohamadou Kanté Crawley Town Ativo 117 / 120 40% 1 02.05.2028 -
Joseph Hungbo Wigan Athletic Ativo 114 / 122 40% 1 29.04.2028 -
Kane Wilson Milton Keynes Dons Ativo 124 / 122 40% 1 29.04.2028 -
George Hall Port Vale Ativo 126 / 111 40% 2 18.04.2028 -
Tobías Ostchega America Mineiro Ativo 124 / 117 40% 3 15.04.2028 -
Harry Anderson Bristol Rovers Ativo 112 / 96 40% 2 15.04.2028 -
Daniel Banjaqui Benfica Ativo 126 / 116 40% 2 11.04.2028 -
Hakim Sulemana Ashanti Gold Ativo 106 / 115 40% 2 11.04.2028 -
Víctor Guzmán Sporting CP Ativo 97 / 102 40% 2 09.04.2028 -
Aaron Collins Milton Keynes Dons Ativo 116 / 111 40% 5 08.04.2028 -
Mohammed Essien Hasaacas Ativo 111 / 109 40% 1 08.04.2028 -
João Caiado Pacos de Ferreira Ativo 122 / 101 40% 3 05.04.2028 -
Fernando Ceará Ativo 123 / 111 40% 1 02.04.2028 -
Martim Cunha Porto Ativo 111 / 123 40% 1 31.03.2028 -
Adam Phillips Northampton Town Ativo 123 / 123 40% 1 31.03.2028 -
Kahiser Lenis Ceará Ativo 122 / 116 40% 1 21.03.2028 -
Matheusinho Atletico Goianiense Ativo 109 / 108 40% 2 16.03.2028 -
Lautaro Calderón Asante Kotoko Ativo 107 / 96 40% 1 14.03.2028 -
Zé Carlos Gil Vicente Ativo 120 / 139 40% 1 13.03.2028 -
Armando Dobra Chesterfield Ativo 107 / 126 40% 1 13.03.2028 -
Matheus Vargas Paysandu Ativo 114 / 114 40% 2 11.03.2028 -
Vinicius Zanocelo Ceará Ativo 127 / 132 40% 1 10.03.2028 -
Matheus Araújo Ceará Ativo 122 / 125 40% 1 07.03.2028 -
Samuel Justo Sporting CP Ativo 119 / 135 40% 2 04.03.2028 -
Baralhas Vitória Ativo 124 / 135 40% 1 04.03.2028 -
André Miranda Porto Ativo 109 / 113 40% 2 29.02.2028 -
Sonny Carey Charlton Athletic Ativo 124 / 119 40% 1 29.02.2028 -
Bernardo Lima Porto Ativo 104 / 120 40% 1 22.02.2028 -
Jack Harrison New England Revolution Ativo 138 / 143 40% 2 21.02.2028 -
Neto Moura Mirassol Ativo 124 / 119 40% 1 14.02.2028 -
Simen Bolkan Nordli Rosenborg Ativo 127 / 117 40% 1 14.02.2028 -
Alejo Cruz Juventud Ativo 126 / 128 40% 3 09.02.2028 -
Federico Bicoro Lillestrom Ativo 108 / 109 40% 1 09.02.2028 -
Gonzalo Asis Almagro Ativo 109 / 119 40% 1 30.11.2027 -
Matías Viguet Maipú Ativo 113 / 118 40% 1 30.11.2027 -
Bruno Leyes Godoy Cruz Ativo 126 / 123 40% 1 29.11.2027 -
Daniel Karlsbakk Sarpsborg 08 Ativo 136 / 129 40% 1 29.11.2027 -
Oscar Garrido Mitre Ativo 117 / 114 40% 1 25.11.2027 -
Jonathan Bamba Chicago Fire Ativo 143 / 131 40% 4 22.11.2027 -
Antonio Galeano Remo Stars Ativo 124 / 113 40% 3 21.11.2027 -
Rodrigo González Mitre Ativo 122 / 109 40% 4 19.11.2027 -
Brian Farioli Estudiantes Ativo 120 / 114 40% 1 19.11.2027 -
Fernando Bersano Madryn Ativo 121 / 117 40% 1 19.11.2027 -
Santiago Rodríguez Gimnasia y Esgrima Ativo 118 / 121 40% 1 12.11.2027 -
Ryan Gauld Vancouver Whitecaps Ativo 131 / 136 40% 4 10.11.2027 -
Tomás Ferreyra Defensores Unidos Ativo 106 / 113 40% 1 10.11.2027 -
Pep Biel Charlotte Football Club Ativo 125 / 117 40% 2 09.11.2027 -
Johan Campaña Patriotas Ativo 108 / 105 40% 5 08.11.2027 -
Martín Campos Ferro Carril Oeste Ativo 113 / 121 40% 3 03.11.2027 -
Alejo Dramisino Atlanta Ativo 125 / 126 40% 1 02.11.2027 -
Sebastián Jaurena San Martín SJ Ativo 117 / 123 40% 2 29.10.2027 -
Manuel Mónaco Sarmiento Ativo 125 / 117 40% 3 28.10.2027 -
Enzo Martínez Almagro Ativo 112 / 111 40% 1 28.10.2027 -
Horacio Tijanovich Central Córdoba SdE Ativo 113 / 108 40% 1 25.10.2027 -
Augusto Berrondo Tristán Suárez Ativo 110 / 117 40% 1 19.10.2027 -
Paul Samson Plateau United Ativo 99 / 100 40% 3 17.10.2027 -
Gastón Moreyra Almirante Brown Ativo 111 / 112 40% 1 01.10.2027 -
Matías Rosales Sarmiento Ativo 111 / 119 40% 1 28.09.2027 -
Diego Gaitán Maipú Ativo 115 / 109 40% 1 25.09.2027 -
Federico Versaci Talleres Ativo 113 / 110 40% 2 23.09.2027 -
Enzo Trinidad Colegiales Ativo 115 / 109 40% 1 20.09.2027 -
Telasco Segovia Inter Miami CF Ativo 130 / 129 40% 1 07.09.2027 -
Agustín Alaniz Rentistas Ativo 122 / 107 40% 1 06.09.2027 -
João Dalla Corte Internacional Ativo 101 / 96 76% 1 21.06.2027 Aprovar
Da Mata Flamengo Ativo 88 / 91 76% 1 01.06.2027 Aprovar
Xavi Sintes Estoril Praia Ativo 114 / 107 40% 1 12.08.2026 -
Miguel Nóbrega Vitoria Guimaraes Ativo 108 / 117 40% 1 12.08.2026 -
Noah Madsen Maritimo Ativo 101 / 100 40% 1 12.08.2026 -
Abdu Conté Casa Pia Ativo 121 / 126 40% 1 10.08.2026 -
Mathias De Amorim Famalicao Ativo 135 / 139 40% 2 09.08.2026 -
Ulisses Nacional Ativo 112 / 119 40% 1 09.08.2026 -
Denis Huseinbašić Braga Ativo 130 / 117 40% 1 06.08.2026 -
Weverson Gil Vicente Ativo 126 / 120 40% 1 06.08.2026 -
Tom van de Looi Famalicao Ativo 123 / 124 40% 1 02.08.2026 -